| time (UTC) | temp F | wind direction | speed knots | gust knots | rain 1hr in | rain 24hr in | rain mn in | humidity % | barometer mb |
| 20260504012321 | 64 | 297 | 0.0 | 0.9 | 0.00 | 0.00 | 0.00 | 61 | 1004.1 |
| 20260504011316 | 64 | 3 | 0.0 | 2.6 | 0.00 | 0.00 | 0.00 | 63 | 1004.0 |
| 20260504010312 | 65 | 8 | 0.0 | 1.7 | 0.00 | 0.00 | 0.00 | 62 | 1003.9 |
| 20260504005328 | 67 | 245 | 0.9 | 1.7 | 0.00 | 0.00 | 0.00 | 61 | 1003.8 |
| 20260504004323 | 67 | 15 | 0.0 | 0.9 | 0.00 | 0.00 | 0.00 | 60 | 1003.8 |
| 20260504003311 | 67 | 320 | 0.0 | 3.5 | 0.00 | 0.00 | 0.00 | 62 | 1003.9 |
| 20260504002324 | 68 | 301 | 2.6 | 7.8 | 0.00 | 0.00 | 0.00 | 53 | 1003.7 |
| 20260504001319 | 68 | 274 | 1.7 | 6.1 | 0.00 | 0.00 | 0.00 | 57 | 1003.7 |
| 20260504000313 | 69 | 309 | 2.6 | 5.2 | 0.00 | 0.00 | 0.00 | 50 | 1003.7 |
| 20260503235330 | 69 | 286 | 0.0 | 2.6 | 0.00 | 0.00 | 0.00 | 58 | 1003.6 |
| 20260503234326 | 68 | 313 | 0.9 | 4.3 | 0.00 | 0.00 | 0.00 | 60 | 1003.6 |
| 20260503233339 | 68 | 311 | 3.5 | 7.0 | 0.00 | 0.00 | 0.00 | 54 | 1003.5 |
| 20260503232334 | 69 | 281 | 5.2 | 8.7 | 0.00 | 0.00 | 0.00 | 46 | 1003.5 |
| 20260503231351 | 69 | 290 | 2.6 | 7.0 | 0.00 | 0.00 | 0.00 | 52 | 1003.5 |
| 20260503230323 | 70 | 304 | 6.1 | 8.7 | 0.00 | 0.00 | 0.00 | 49 | 1003.5 |
| 20260503225318 | 70 | 288 | 6.1 | 13.0 | 0.00 | 0.00 | 0.00 | 47 | 1003.6 |
| 20260503224330 | 69 | 288 | 4.3 | 7.0 | 0.00 | 0.00 | 0.00 | 50 | 1003.7 |
| 20260503223312 | 69 | 293 | 3.5 | 7.8 | 0.00 | 0.00 | 0.00 | 49 | 1003.7 |
| 20260503222336 | 69 | 290 | 4.3 | 9.6 | 0.00 | 0.00 | 0.00 | 48 | 1003.9 |
| 20260503221324 | 69 | 291 | 7.0 | 9.6 | 0.00 | 0.00 | 0.00 | 47 | 1003.9 |
| 20260503220319 | 68 | 248 | 7.0 | 9.6 | 0.00 | 0.00 | 0.00 | 49 | 1004.0 |
| 20260503215312 | 68 | 273 | 3.5 | 10.4 | 0.00 | 0.00 | 0.00 | 49 | 1003.9 |
| 20260503214325 | 67 | 262 | 7.8 | 9.6 | 0.00 | 0.00 | 0.00 | 52 | 1004.0 |
| 20260503213321 | 67 | 291 | 6.1 | 10.4 | 0.00 | 0.00 | 0.00 | 52 | 1004.1 |
| 20260503212316 | 67 | 264 | 7.8 | 10.4 | 0.00 | 0.00 | 0.00 | 50 | 1004.1 |
| 20260503211332 | 67 | 252 | 7.0 | 13.0 | 0.00 | 0.00 | 0.00 | 50 | 1004.2 |
| 20260503210343 | 67 | 264 | 7.0 | 11.3 | 0.00 | 0.00 | 0.00 | 53 | 1004.2 |
| 20260503205313 | 66 | 249 | 7.8 | 10.4 | 0.00 | 0.00 | 0.00 | 52 | 1004.3 |
| 20260503204328 | 66 | 255 | 8.7 | 13.0 | 0.00 | 0.00 | 0.00 | 52 | 1004.5 |
| 20260503203343 | 66 | 245 | 9.6 | 13.0 | 0.00 | 0.00 | 0.00 | 54 | 1004.6 |
| 20260503202318 | 65 | 252 | 7.0 | 12.2 | 0.00 | 0.00 | 0.00 | 55 | 1004.8 |
| 20260503201312 | 65 | 257 | 10.4 | 14.8 | 0.00 | 0.00 | 0.00 | 52 | 1005.0 |
| 20260503200347 | 65 | 240 | 7.0 | 10.4 | 0.00 | 0.00 | 0.00 | 55 | 1005.2 |
| 20260503195321 | 64 | 278 | 7.0 | 12.2 | 0.00 | 0.00 | 0.00 | 55 | 1005.3 |
| 20260503194315 | 64 | 255 | 8.7 | 13.0 | 0.00 | 0.00 | 0.00 | 54 | 1005.4 |
| 20260503193332 | 63 | 300 | 7.0 | 10.4 | 0.00 | 0.00 | 0.00 | 56 | 1005.5 |
| 20260503192328 | 63 | 261 | 7.0 | 11.3 | 0.00 | 0.00 | 0.00 | 58 | 1005.7 |
| 20260503191342 | 63 | 264 | 7.8 | 11.3 | 0.00 | 0.00 | 0.00 | 56 | 1005.8 |
| 20260503190333 | 63 | 283 | 7.0 | 13.0 | 0.00 | 0.00 | 0.00 | 55 | 1005.9 |
| 20260503185341 | 62 | 276 | 7.8 | 16.5 | 0.00 | 0.00 | 0.00 | 55 | 1006.0 |
| 20260503184336 | 62 | 255 | 8.7 | 12.2 | 0.00 | 0.00 | 0.00 | 55 | 1006.0 |
| 20260503183326 | 62 | 250 | 8.7 | 16.5 | 0.00 | 0.00 | 0.00 | 54 | 1006.1 |
| 20260503182323 | 62 | 249 | 9.6 | 18.2 | 0.00 | 0.00 | 0.00 | 56 | 1006.1 |
| 20260503181338 | 61 | 248 | 9.6 | 14.8 | 0.00 | 0.00 | 0.00 | 56 | 1006.2 |
| 20260503180313 | 61 | 261 | 12.2 | 16.5 | 0.00 | 0.00 | 0.00 | 53 | 1006.3 |
| 20260503175330 | 61 | 248 | 11.3 | 16.5 | 0.00 | 0.00 | 0.00 | 54 | 1006.3 |
| 20260503174319 | 61 | 239 | 9.6 | 14.8 | 0.00 | 0.00 | 0.00 | 53 | 1006.5 |
| 20260503173335 | 60 | 241 | 12.2 | 17.4 | 0.00 | 0.00 | 0.00 | 57 | 1006.6 |
| 20260503172330 | 60 | 266 | 10.4 | 17.4 | 0.00 | 0.00 | 0.00 | 56 | 1006.9 |
| 20260503171348 | 60 | 248 | 9.6 | 19.1 | 0.00 | 0.00 | 0.00 | 60 | 1006.9 |
| 20260503170343 | 60 | 232 | 5.2 | 18.2 | 0.00 | 0.00 | 0.00 | 57 | 1007.0 |
| 20260503150339 | 57 | 243 | 6.1 | 16.5 | 0.00 | 0.00 | 0.00 | 64 | 1008.7 |
| 20260503140314 | 55 | 242 | 4.3 | 19.1 | 0.00 | 0.00 | 0.00 | 68 | 1009.5 |
| 20260503131352 | 54 | 262 | 13.0 | 16.5 | 0.00 | 0.00 | 0.00 | 66 | 1009.9 |
| 20260503130320 | 54 | 243 | 8.7 | 16.5 | 0.00 | 0.00 | 0.00 | 66 | 1009.9 |
| 20260503110319 | 52 | 233 | 6.1 | 10.4 | 0.00 | 0.00 | 0.00 | 58 | 1010.4 |
| 20260503090355 | 52 | 245 | 6.1 | 10.4 | 0.00 | 0.00 | 0.00 | 56 | 1011.5 |
| 20260503081343 | 52 | 248 | 5.2 | 8.7 | 0.00 | 0.00 | 0.00 | 55 | 1011.7 |
| 20260503080317 | 52 | 248 | 1.7 | 6.1 | 0.00 | 0.00 | 0.00 | 54 | 1011.8 |
| 20260503072330 | 52 | 242 | 3.5 | 7.8 | 0.00 | 0.00 | 0.00 | 55 | 1012.0 |
| 20260503071324 | 52 | 231 | 4.3 | 7.0 | 0.00 | 0.00 | 0.00 | 53 | 1011.9 |
| 20260503070320 | 52 | 233 | 2.6 | 7.0 | 0.00 | 0.00 | 0.00 | 53 | 1012.1 |
| 20260503060326 | 53 | 238 | 3.5 | 7.0 | 0.00 | 0.00 | 0.00 | 52 | 1012.5 |
| 20260503054311 | 53 | 236 | 3.5 | 9.6 | 0.00 | 0.00 | 0.00 | 50 | 1012.6 |
| 20260503053324 | 53 | 239 | 4.3 | 6.1 | 0.00 | 0.00 | 0.00 | 50 | 1012.8 |
| 20260503052319 | 54 | 250 | 2.6 | 5.2 | 0.00 | 0.00 | 0.00 | 48 | 1012.8 |
| 20260503051313 | 54 | 251 | 3.5 | 6.1 | 0.00 | 0.00 | 0.00 | 48 | 1012.8 |
| 20260503050326 | 54 | 243 | 3.5 | 6.1 | 0.00 | 0.00 | 0.00 | 49 | 1012.9 |
| 20260503045320 | 54 | 276 | 3.5 | 5.2 | 0.00 | 0.00 | 0.00 | 48 | 1013.0 |
| 20260503044315 | 54 | 259 | 3.5 | 7.8 | 0.00 | 0.00 | 0.00 | 48 | 1013.0 |
| 20260503043347 | 52 | 255 | 2.6 | 6.1 | 0.00 | 0.00 | 0.00 | 53 | 1013.1 |
| 20260503042320 | 51 | 153 | 0.0 | 0.0 | 0.00 | 0.00 | 0.00 | 55 | 1013.2 |
| 20260503041336 | 51 | 180 | 0.0 | 0.0 | 0.00 | 0.00 | 0.00 | 56 | 1013.3 |
| 20260503040331 | 51 | 131 | 0.0 | 0.0 | 0.00 | 0.00 | 0.00 | 55 | 1013.4 |
| 20260503035344 | 50 | 132 | 0.0 | 0.0 | 0.00 | 0.00 | 0.00 | 56 | 1013.4 |
| 20260503034320 | 50 | 133 | 0.0 | 0.0 | 0.00 | 0.00 | 0.00 | 59 | 1013.5 |
| 20260503033337 | 50 | 144 | 0.0 | 0.0 | 0.00 | 0.00 | 0.00 | 56 | 1013.6 |
| 20260503032312 | 50 | 142 | 0.0 | 0.0 | 0.00 | 0.00 | 0.00 | 57 | 1013.7 |
| 20260503031328 | 50 | 132 | 0.0 | 0.0 | 0.00 | 0.00 | 0.00 | 53 | 1013.9 |
| 20260503030400 | 50 | 131 | 0.0 | 0.0 | 0.00 | 0.00 | 0.00 | 54 | 1013.9 |
| 20260503025334 | 51 | 141 | 0.0 | 0.0 | 0.00 | 0.00 | 0.00 | 54 | 1013.9 |
| 20260503024326 | 51 | 141 | 0.0 | 0.9 | 0.00 | 0.00 | 0.00 | 53 | 1013.9 |
| 20260503023321 | 51 | 141 | 0.9 | 0.9 | 0.00 | 0.00 | 0.00 | 54 | 1013.9 |
| 20260503022317 | 52 | 143 | 0.0 | 0.0 | 0.00 | 0.00 | 0.00 | 51 | 1013.9 |
| 20260503021335 | 52 | 143 | 0.0 | 0.0 | 0.00 | 0.00 | 0.00 | 53 | 1013.9 |
| 20260503020323 | 53 | 143 | 0.0 | 0.9 | 0.00 | 0.00 | 0.00 | 54 | 1013.9 |
| 20260503015317 | 55 | 147 | 0.9 | 3.5 | 0.00 | 0.00 | 0.00 | 53 | 1013.8 |
| 20260503014334 | 56 | 245 | 3.5 | 4.3 | 0.00 | 0.00 | 0.00 | 51 | 1013.8 |
| 20260503013324 | 56 | 242 | 2.6 | 5.2 | 0.00 | 0.00 | 0.00 | 51 | 1013.6 |